Chantaco — FMLM — position and weather

sailwx.info

Track history (hours):
 
Tides and Currents Weather Stations Pressure Air Temp Water Temp Dewpoint Dewpoint Depression Visibility Wind Speed Wind Dir Waves Ship Positions

Chantaco

Last reported at 2015-Apr-18 16:30 UTC. Time now 2015-Apr-18 16:41 UTC.
Position N 57°40' E 011°47'.

Length 143 m; draft 7.1 m.

Type: Tanker. MMSI: 228330700.

Date/timePositionNaut miles runAvg speedWind from/ knotsBaromVisibWave heightAir tempDewpointWater temp
2015-Apr-18 16:30N 57°40' E 011°47'0 0.0
2015-Apr-18 15:33N 57°40' E 011°47'0 0.0
2015-Apr-18 14:33N 57°40' E 011°47'0 0.0
2015-Apr-18 13:33N 57°40' E 011°47'0 0.0
2015-Apr-18 12:33N 57°40' E 011°47'0 0.0
2015-Apr-18 11:33N 57°40' E 011°47'0 0.1
2015-Apr-18 10:33N 57°40' E 011°47'0 0.0
2015-Apr-18 09:33N 57°40' E 011°47'0 0.0
2015-Apr-18 08:33N 57°40' E 011°47'0 0.0
2015-Apr-18 07:33N 57°40' E 011°47'1 1.2
2015-Apr-18 06:33N 57°41' E 011°49'2 2.0
2015-Apr-18 05:33N 57°41' E 011°53'0 0.0
2015-Apr-18 04:30N 57°41' E 011°53'0 0.0
2015-Apr-18 03:33N 57°41' E 011°53'0 0.0
2015-Apr-18 02:33N 57°41' E 011°53'0 0.0
2015-Apr-18 01:33N 57°41' E 011°53'0 0.0
2015-Apr-18 00:33N 57°41' E 011°53'0 0.0
2015-Apr-17 23:33N 57°41' E 011°53'0 0.0
2015-Apr-17 22:33N 57°41' E 011°53'0 0.0
2015-Apr-17 21:33N 57°41' E 011°53'0 0.0
2015-Apr-17 20:33N 57°41' E 011°53'0 0.0
2015-Apr-17 19:33N 57°41' E 011°53'0 0.0
2015-Apr-17 18:33N 57°41' E 011°53'0 0.0
2015-Apr-17 17:33N 57°41' E 011°53'0 0.0
2015-Apr-17 16:33N 57°41' E 011°53'0 0.0
2015-Apr-17 15:33N 57°41' E 011°53'0 0.0
2015-Apr-17 14:33N 57°41' E 011°53'0 0.0
2015-Apr-17 13:33N 57°41' E 011°53'0 0.0
2015-Apr-17 12:33N 57°41' E 011°53'0 0.0
2015-Apr-17 11:33N 57°41' E 011°53'0 0.0
2015-Apr-17 10:33N 57°41' E 011°53'0 0.0
2015-Apr-17 09:33N 57°41' E 011°53'0 0.0
2015-Apr-17 08:33N 57°41' E 011°53'0 0.0
2015-Apr-17 07:33N 57°41' E 011°53'0 0.0
2015-Apr-17 06:32N 57°41' E 011°53'0 0.0
2015-Apr-17 05:32N 57°41' E 011°53'0 0.0
2015-Apr-17 04:33N 57°41' E 011°53'0 0.0
2015-Apr-17 03:32N 57°41' E 011°53'0 0.0
2015-Apr-17 02:32N 57°41' E 011°53'0 0.0
2015-Apr-17 01:32N 57°41' E 011°53'0 0.0
2015-Apr-17 00:32N 57°41' E 011°53'0 0.0
2015-Apr-16 23:32N 57°41' E 011°53'0 0.0
2015-Apr-16 22:32N 57°41' E 011°53'0 0.0
2015-Apr-16 21:32N 57°41' E 011°53'0 0.0
2015-Apr-16 20:32N 57°41' E 011°53'0 0.0
2015-Apr-16 19:32N 57°41' E 011°53'0 0.0
2015-Apr-16 18:32N 57°41' E 011°53'0 0.0
2015-Apr-16 17:32N 57°41' E 011°53'0 0.0
2015-Apr-16 16:29N 57°41' E 011°53'0 0.0
2015-Apr-16 15:32N 57°41' E 011°53'0 0.0
2015-Apr-16 14:32N 57°41' E 011°53'0 0.0
2015-Apr-16 13:29N 57°41' E 011°53'0 0.0
2015-Apr-16 12:32N 57°41' E 011°53'0 0.0
2015-Apr-16 11:32N 57°41' E 011°53'0 0.0
2015-Apr-16 10:32N 57°41' E 011°53'0 0.0
2015-Apr-16 09:32N 57°41' E 011°53'1 0.8
2015-Apr-16 08:33N 57°41' E 011°51'4 3.7
2015-Apr-16 07:34N 57°39' E 011°45'10 9.5
2015-Apr-16 06:33N 57°31' E 011°39'1111.2
2015-Apr-16 05:33N 57°19' E 011°39'1111.0
2015-Apr-16 04:33N 57°08' E 011°40'1010.3
2015-Apr-16 03:33N 56°59' E 011°46'1111.1
2015-Apr-16 02:33N 56°48' E 011°54'1211.7
2015-Apr-16 01:33N 56°37' E 011°57'1211.9
2015-Apr-16 00:33N 56°25' E 012°02'1111.5
2015-Apr-15 23:33N 56°15' E 012°13'1212.1
2015-Apr-15 22:33N 56°08' E 012°30'1110.6
2015-Apr-15 21:33N 55°60' E 012°42'1211.7
2015-Apr-15 20:34N 55°49' E 012°47'1211.5
2015-Apr-15 19:34N 55°39' E 012°59'2 1.6
2015-Apr-15 18:33N 55°38' E 013°01'0 0.0
2015-Apr-15 17:33N 55°38' E 013°01'0 0.0
2015-Apr-15 16:30N 55°38' E 013°01'0 0.0
2015-Apr-15 15:33N 55°38' E 013°01'0 0.0
2015-Apr-15 14:33N 55°38' E 013°01'0 0.0
2015-Apr-15 13:33N 55°38' E 013°01'0 0.0
2015-Apr-15 12:33N 55°38' E 013°01'0 0.0
2015-Apr-15 11:33N 55°38' E 013°01'0 0.0
2015-Apr-15 10:33N 55°38' E 013°01'0 0.0
2015-Apr-15 09:33N 55°38' E 013°01'0 0.0
2015-Apr-15 08:30N 55°38' E 013°01'0 0.0
2015-Apr-15 07:33N 55°38' E 013°01'0 0.0
2015-Apr-15 06:33N 55°38' E 013°01'0 0.0
2015-Apr-15 05:33N 55°38' E 013°01'0 0.0
2015-Apr-15 04:33N 55°38' E 013°01'0 0.0
2015-Apr-15 03:33N 55°38' E 013°01'0 0.0
2015-Apr-15 02:30N 55°38' E 013°01'0 0.0
2015-Apr-15 01:33N 55°38' E 013°01'0 0.0
2015-Apr-15 00:33N 55°38' E 013°01'0 0.0
2015-Apr-14 23:33N 55°38' E 013°01'0 0.0
2015-Apr-14 22:33N 55°38' E 013°01'0 0.0
2015-Apr-14 21:33N 55°38' E 013°01'0 0.0
2015-Apr-14 20:33N 55°38' E 013°01'0 0.0
2015-Apr-14 19:33N 55°38' E 013°01'0 0.0
2015-Apr-14 18:33N 55°38' E 013°01'0 0.0
2015-Apr-14 17:33N 55°38' E 013°01'0 0.0
2015-Apr-14 16:33N 55°38' E 013°01'0 0.0
2015-Apr-14 15:33N 55°38' E 013°01'1 0.7
2015-Apr-14 14:34N 55°39' E 013°00'1010.3
2015-Apr-14 13:33N 55°47' E 012°50'1111.1
2015-Apr-14 12:34N 55°57' E 012°42'1111.1
2015-Apr-14 11:33N 56°07' E 012°31'1211.9
2015-Apr-14 10:33N 56°14' E 012°14'1111.0
2015-Apr-14 09:33N 56°22' E 012°01'1211.4
2015-Apr-14 08:33N 56°34' E 011°57'1212.0
2015-Apr-14 07:33N 56°45' E 011°52'1212.2
2015-Apr-14 06:33N 56°57' E 011°45'1212.1
2015-Apr-14 05:33N 57°08' E 011°37'1212.4
2015-Apr-14 04:33N 57°20' E 011°30'1212.1
2015-Apr-14 03:33N 57°31' E 011°19'1312.7
2015-Apr-14 02:33N 57°39' E 011°01'1313.0
2015-Apr-14 01:33N 57°48' E 010°43'7712.3
2015-Apr-13 19:16N 57°20' E 008°29'3310.9
2015-Apr-13 16:14N 56°57' E 007°46'19011.3
2015-Apr-12 23:24N 54°13' E 004°57'1011.8
2015-Apr-12 22:33N 54°04' E 004°48'9611.5
2015-Apr-12 14:11N 52°45' E 003°18'1111.6
2015-Apr-12 13:16N 52°34' E 003°16'811.8
2015-Apr-12 12:33N 52°26' E 003°14'1312.2
2015-Apr-12 11:31N 52°13' E 003°11'1212.4
2015-Apr-12 10:32N 52°03' E 002°59'4013.4
2015-Apr-12 07:33N 51°32' E 002°19'1413.9
2015-Apr-12 06:31N 51°19' E 002°09'1313.6
2015-Apr-12 05:34N 51°10' E 001°54'1514.6
2015-Apr-12 04:33N 50°60' E 001°37'1514.5
2015-Apr-12 03:30N 50°47' E 001°25'7813.1
2015-Apr-11 21:32N 49°49' E 000°03'1111.4
2015-Apr-11 20:33N 49°39' W 000°05'1111.2
2015-Apr-11 19:33N 49°29' E 000°05'4 3.7
2015-Apr-11 18:33N 49°29' E 000°10'0 0.5
2015-Apr-11 17:34N 49°29' E 000°11'0 0.0
2015-Apr-11 16:33N 49°29' E 000°11'0 0.0
2015-Apr-11 15:33N 49°29' E 000°11'0 0.0
2015-Apr-11 14:33N 49°29' E 000°11'0 0.0
2015-Apr-11 13:33N 49°29' E 000°11'0 0.0
2015-Apr-11 12:33N 49°29' E 000°11'0 0.0
2015-Apr-11 11:33N 49°29' E 000°11'0 0.0
2015-Apr-11 10:33N 49°29' E 000°11'0 0.0
2015-Apr-11 09:33N 49°29' E 000°11'0 0.0
2015-Apr-11 08:33N 49°29' E 000°11'0 0.0
2015-Apr-11 07:33N 49°29' E 000°11'0 0.0
2015-Apr-11 06:33N 49°29' E 000°11'0 0.0
2015-Apr-11 05:33N 49°29' E 000°11'0 0.0
2015-Apr-11 04:33N 49°29' E 000°11'0 0.0
2015-Apr-11 03:33N 49°29' E 000°11'0 0.0
2015-Apr-11 02:33N 49°29' E 000°11'0 0.0
2015-Apr-11 01:33N 49°29' E 000°11'0 0.0
2015-Apr-11 00:33N 49°29' E 000°11'0 0.0
2015-Apr-10 23:33N 49°29' E 000°11'0 0.0
2015-Apr-10 22:33N 49°29' E 000°11'0 0.0
2015-Apr-10 21:33N 49°29' E 000°11'0 0.0
2015-Apr-10 20:33N 49°29' E 000°11'0 0.0
2015-Apr-10 19:33N 49°29' E 000°11'0 0.0
2015-Apr-10 18:33N 49°29' E 000°11'0 0.0
2015-Apr-10 17:33N 49°29' E 000°11'0 0.0
2015-Apr-10 16:33N 49°29' E 000°11'0 0.0
2015-Apr-10 15:33N 49°29' E 000°11'0 0.0
2015-Apr-10 14:24N 49°29' E 000°11'0 0.0
2015-Apr-10 13:33N 49°29' E 000°11'0 0.0
2015-Apr-10 12:33N 49°29' E 000°11'0 0.0
2015-Apr-10 11:30N 49°29' E 000°11'0 0.0
2015-Apr-10 10:33N 49°29' E 000°11'0 0.0
2015-Apr-10 09:33N 49°29' E 000°11'0 0.0
2015-Apr-10 08:33N 49°29' E 000°11'0 0.0
2015-Apr-10 07:33N 49°29' E 000°11'0 0.0
2015-Apr-10 06:33N 49°29' E 000°11'0 0.0
2015-Apr-10 05:33N 49°29' E 000°11'1 0.5
2015-Apr-10 04:33N 49°29' E 000°10'7 6.5
2015-Apr-10 03:33N 49°30' E 000°00'1 1.4
2015-Apr-10 02:32N 49°29' W 000°02'0 0.0
2015-Apr-10 01:29N 49°29' W 000°02'0 0.0
2015-Apr-10 00:32N 49°29' W 000°02'0 0.0
2015-Apr-09 23:32N 49°29' W 000°02'0 0.2
2015-Apr-09 22:32N 49°29' W 000°02'0 0.0
2015-Apr-09 21:32N 49°29' W 000°02'0 0.1
2015-Apr-09 20:32N 49°29' W 000°02'0 0.0
2015-Apr-09 19:32N 49°29' W 000°02'0 0.0
2015-Apr-09 18:32N 49°29' W 000°02'0 0.0
2015-Apr-09 17:32N 49°29' W 000°02'0 0.0
2015-Apr-09 16:29N 49°29' W 000°02'0 0.0
2015-Apr-09 15:29N 49°29' W 000°02'0 0.0
2015-Apr-09 14:29N 49°29' W 000°02'0 0.1
2015-Apr-09 13:32N 49°29' W 000°01'0 0.1
2015-Apr-09 12:29N 49°29' W 000°01'0 0.0
2015-Apr-09 11:32N 49°29' W 000°02'0 0.0
2015-Apr-09 10:29N 49°29' W 000°02'0 0.1
2015-Apr-09 09:31N 49°29' W 000°02'0 0.1
2015-Apr-09 08:31N 49°29' W 000°02'2 1.8
2015-Apr-09 07:34N 49°30' W 000°04'1413.6
2015-Apr-09 06:33N 49°44' W 000°02'1615.6
2015-Apr-09 05:33N 49°56' E 000°12'3414.4
2015-Apr-09 03:14N 50°25' E 000°38'913.5
2015-Apr-09 02:33N 50°35' E 000°38'1313.5
2015-Apr-09 01:33N 50°44' E 000°53'1312.8
2015-Apr-09 00:33N 50°51' E 001°10'1413.9
2015-Apr-08 23:34N 51°00' E 001°26'1616.2
2015-Apr-08 22:34N 51°12' E 001°44'1616.0
2015-Apr-08 21:34N 51°24' E 002°01'1414.4
2015-Apr-08 20:34N 51°22' E 002°24'1414.1
2015-Apr-08 19:33N 51°22' E 002°46'1414.0
2015-Apr-08 18:34N 51°24' E 003°08'1414.5
2015-Apr-08 17:34N 51°26' E 003°31'1110.9
2015-Apr-08 16:33N 51°21' E 003°47'  
Track history (hours):
 
Tides and Currents Weather Stations Pressure Air Temp Water Temp Dewpoint Dewpoint Depression Visibility Wind Speed Wind Dir Waves Ship Positions

Chantaco

Last reported at 2015-Apr-18 16:30 UTC. Time now 2015-Apr-18 16:41 UTC.
Position N 57°40' E 011°47'.

Length 143 m; draft 7.1 m.

Type: Tanker. MMSI: 228330700.

Date/timePositionNaut miles runAvg speedWind from/ knotsBaromVisibWave heightAir tempDewpointWater temp
2015-Apr-18 16:30N 57°40' E 011°47'0 0.0
2015-Apr-18 15:33N 57°40' E 011°47'0 0.0
2015-Apr-18 14:33N 57°40' E 011°47'0 0.0
2015-Apr-18 13:33N 57°40' E 011°47'0 0.0
2015-Apr-18 12:33N 57°40' E 011°47'0 0.0
2015-Apr-18 11:33N 57°40' E 011°47'0 0.1
2015-Apr-18 10:33N 57°40' E 011°47'0 0.0
2015-Apr-18 09:33N 57°40' E 011°47'0 0.0
2015-Apr-18 08:33N 57°40' E 011°47'0 0.0
2015-Apr-18 07:33N 57°40' E 011°47'1 1.2
2015-Apr-18 06:33N 57°41' E 011°49'2 2.0
2015-Apr-18 05:33N 57°41' E 011°53'0 0.0
2015-Apr-18 04:30N 57°41' E 011°53'0 0.0
2015-Apr-18 03:33N 57°41' E 011°53'0 0.0
2015-Apr-18 02:33N 57°41' E 011°53'0 0.0
2015-Apr-18 01:33N 57°41' E 011°53'0 0.0
2015-Apr-18 00:33N 57°41' E 011°53'0 0.0
2015-Apr-17 23:33N 57°41' E 011°53'0 0.0
2015-Apr-17 22:33N 57°41' E 011°53'0 0.0
2015-Apr-17 21:33N 57°41' E 011°53'0 0.0
2015-Apr-17 20:33N 57°41' E 011°53'0 0.0
2015-Apr-17 19:33N 57°41' E 011°53'0 0.0
2015-Apr-17 18:33N 57°41' E 011°53'0 0.0
2015-Apr-17 17:33N 57°41' E 011°53'0 0.0
2015-Apr-17 16:33N 57°41' E 011°53'0 0.0
2015-Apr-17 15:33N 57°41' E 011°53'0 0.0
2015-Apr-17 14:33N 57°41' E 011°53'0 0.0
2015-Apr-17 13:33N 57°41' E 011°53'0 0.0
2015-Apr-17 12:33N 57°41' E 011°53'0 0.0
2015-Apr-17 11:33N 57°41' E 011°53'0 0.0
2015-Apr-17 10:33N 57°41' E 011°53'0 0.0
2015-Apr-17 09:33N 57°41' E 011°53'0 0.0
2015-Apr-17 08:33N 57°41' E 011°53'0 0.0
2015-Apr-17 07:33N 57°41' E 011°53'0 0.0
2015-Apr-17 06:32N 57°41' E 011°53'0 0.0
2015-Apr-17 05:32N 57°41' E 011°53'0 0.0
2015-Apr-17 04:33N 57°41' E 011°53'0 0.0
2015-Apr-17 03:32N 57°41' E 011°53'0 0.0
2015-Apr-17 02:32N 57°41' E 011°53'0 0.0
2015-Apr-17 01:32N 57°41' E 011°53'0 0.0
2015-Apr-17 00:32N 57°41' E 011°53'0 0.0
2015-Apr-16 23:32N 57°41' E 011°53'0 0.0
2015-Apr-16 22:32N 57°41' E 011°53'0 0.0
2015-Apr-16 21:32N 57°41' E 011°53'0 0.0
2015-Apr-16 20:32N 57°41' E 011°53'0 0.0
2015-Apr-16 19:32N 57°41' E 011°53'0 0.0
2015-Apr-16 18:32N 57°41' E 011°53'0 0.0
2015-Apr-16 17:32N 57°41' E 011°53'0 0.0
2015-Apr-16 16:29N 57°41' E 011°53'0 0.0
2015-Apr-16 15:32N 57°41' E 011°53'0 0.0
2015-Apr-16 14:32N 57°41' E 011°53'0 0.0
2015-Apr-16 13:29N 57°41' E 011°53'0 0.0
2015-Apr-16 12:32N 57°41' E 011°53'0 0.0
2015-Apr-16 11:32N 57°41' E 011°53'0 0.0
2015-Apr-16 10:32N 57°41' E 011°53'0 0.0
2015-Apr-16 09:32N 57°41' E 011°53'1 0.8
2015-Apr-16 08:33N 57°41' E 011°51'4 3.7
2015-Apr-16 07:34N 57°39' E 011°45'10 9.5
2015-Apr-16 06:33N 57°31' E 011°39'1111.2
2015-Apr-16 05:33N 57°19' E 011°39'1111.0
2015-Apr-16 04:33N 57°08' E 011°40'1010.3
2015-Apr-16 03:33N 56°59' E 011°46'1111.1
2015-Apr-16 02:33N 56°48' E 011°54'1211.7
2015-Apr-16 01:33N 56°37' E 011°57'1211.9
2015-Apr-16 00:33N 56°25' E 012°02'1111.5
2015-Apr-15 23:33N 56°15' E 012°13'1212.1
2015-Apr-15 22:33N 56°08' E 012°30'1110.6
2015-Apr-15 21:33N 55°60' E 012°42'1211.7
2015-Apr-15 20:34N 55°49' E 012°47'1211.5
2015-Apr-15 19:34N 55°39' E 012°59'2 1.6
2015-Apr-15 18:33N 55°38' E 013°01'0 0.0
2015-Apr-15 17:33N 55°38' E 013°01'0 0.0
2015-Apr-15 16:30N 55°38' E 013°01'0 0.0
2015-Apr-15 15:33N 55°38' E 013°01'0 0.0
2015-Apr-15 14:33N 55°38' E 013°01'0 0.0
2015-Apr-15 13:33N 55°38' E 013°01'0 0.0
2015-Apr-15 12:33N 55°38' E 013°01'0 0.0
2015-Apr-15 11:33N 55°38' E 013°01'0 0.0
2015-Apr-15 10:33N 55°38' E 013°01'0 0.0
2015-Apr-15 09:33N 55°38' E 013°01'0 0.0
2015-Apr-15 08:30N 55°38' E 013°01'0 0.0
2015-Apr-15 07:33N 55°38' E 013°01'0 0.0
2015-Apr-15 06:33N 55°38' E 013°01'0 0.0
2015-Apr-15 05:33N 55°38' E 013°01'0 0.0
2015-Apr-15 04:33N 55°38' E 013°01'0 0.0
2015-Apr-15 03:33N 55°38' E 013°01'0 0.0
2015-Apr-15 02:30N 55°38' E 013°01'0 0.0
2015-Apr-15 01:33N 55°38' E 013°01'0 0.0
2015-Apr-15 00:33N 55°38' E 013°01'0 0.0
2015-Apr-14 23:33N 55°38' E 013°01'0 0.0
2015-Apr-14 22:33N 55°38' E 013°01'0 0.0
2015-Apr-14 21:33N 55°38' E 013°01'0 0.0
2015-Apr-14 20:33N 55°38' E 013°01'0 0.0
2015-Apr-14 19:33N 55°38' E 013°01'0 0.0
2015-Apr-14 18:33N 55°38' E 013°01'0 0.0
2015-Apr-14 17:33N 55°38' E 013°01'0 0.0
2015-Apr-14 16:33N 55°38' E 013°01'0 0.0
2015-Apr-14 15:33N 55°38' E 013°01'1 0.7
2015-Apr-14 14:34N 55°39' E 013°00'1010.3
2015-Apr-14 13:33N 55°47' E 012°50'1111.1
2015-Apr-14 12:34N 55°57' E 012°42'1111.1
2015-Apr-14 11:33N 56°07' E 012°31'1211.9
2015-Apr-14 10:33N 56°14' E 012°14'1111.0
2015-Apr-14 09:33N 56°22' E 012°01'1211.4
2015-Apr-14 08:33N 56°34' E 011°57'1212.0
2015-Apr-14 07:33N 56°45' E 011°52'1212.2
2015-Apr-14 06:33N 56°57' E 011°45'1212.1
2015-Apr-14 05:33N 57°08' E 011°37'1212.4
2015-Apr-14 04:33N 57°20' E 011°30'1212.1
2015-Apr-14 03:33N 57°31' E 011°19'1312.7
2015-Apr-14 02:33N 57°39' E 011°01'1313.0
2015-Apr-14 01:33N 57°48' E 010°43'7712.3
2015-Apr-13 19:16N 57°20' E 008°29'3310.9
2015-Apr-13 16:14N 56°57' E 007°46'19011.3
2015-Apr-12 23:24N 54°13' E 004°57'1011.8
2015-Apr-12 22:33N 54°04' E 004°48'9611.5
2015-Apr-12 14:11N 52°45' E 003°18'1111.6
2015-Apr-12 13:16N 52°34' E 003°16'811.8
2015-Apr-12 12:33N 52°26' E 003°14'1312.2
2015-Apr-12 11:31N 52°13' E 003°11'1212.4
2015-Apr-12 10:32N 52°03' E 002°59'4013.4
2015-Apr-12 07:33N 51°32' E 002°19'1413.9
2015-Apr-12 06:31N 51°19' E 002°09'1313.6
2015-Apr-12 05:34N 51°10' E 001°54'1514.6
2015-Apr-12 04:33N 50°60' E 001°37'1514.5
2015-Apr-12 03:30N 50°47' E 001°25'7813.1
2015-Apr-11 21:32N 49°49' E 000°03'1111.4
2015-Apr-11 20:33N 49°39' W 000°05'1111.2
2015-Apr-11 19:33N 49°29' E 000°05'4 3.7
2015-Apr-11 18:33N 49°29' E 000°10'0 0.5
2015-Apr-11 17:34N 49°29' E 000°11'0 0.0
2015-Apr-11 16:33N 49°29' E 000°11'0 0.0
2015-Apr-11 15:33N 49°29' E 000°11'0 0.0
2015-Apr-11 14:33N 49°29' E 000°11'0 0.0
2015-Apr-11 13:33N 49°29' E 000°11'0 0.0
2015-Apr-11 12:33N 49°29' E 000°11'0 0.0
2015-Apr-11 11:33N 49°29' E 000°11'0 0.0
2015-Apr-11 10:33N 49°29' E 000°11'0 0.0
2015-Apr-11 09:33N 49°29' E 000°11'0 0.0
2015-Apr-11 08:33N 49°29' E 000°11'0 0.0
2015-Apr-11 07:33N 49°29' E 000°11'0 0.0
2015-Apr-11 06:33N 49°29' E 000°11'0 0.0
2015-Apr-11 05:33N 49°29' E 000°11'0 0.0
2015-Apr-11 04:33N 49°29' E 000°11'0 0.0
2015-Apr-11 03:33N 49°29' E 000°11'0 0.0
2015-Apr-11 02:33N 49°29' E 000°11'0 0.0
2015-Apr-11 01:33N 49°29' E 000°11'0 0.0
2015-Apr-11 00:33N 49°29' E 000°11'0 0.0
2015-Apr-10 23:33N 49°29' E 000°11'0 0.0
2015-Apr-10 22:33N 49°29' E 000°11'0 0.0
2015-Apr-10 21:33N 49°29' E 000°11'0 0.0
2015-Apr-10 20:33N 49°29' E 000°11'0 0.0
2015-Apr-10 19:33N 49°29' E 000°11'0 0.0
2015-Apr-10 18:33N 49°29' E 000°11'0 0.0
2015-Apr-10 17:33N 49°29' E 000°11'0 0.0
2015-Apr-10 16:33N 49°29' E 000°11'0 0.0
2015-Apr-10 15:33N 49°29' E 000°11'0 0.0
2015-Apr-10 14:24N 49°29' E 000°11'0 0.0
2015-Apr-10 13:33N 49°29' E 000°11'0 0.0
2015-Apr-10 12:33N 49°29' E 000°11'0 0.0
2015-Apr-10 11:30N 49°29' E 000°11'0 0.0
2015-Apr-10 10:33N 49°29' E 000°11'0 0.0
2015-Apr-10 09:33N 49°29' E 000°11'0 0.0
2015-Apr-10 08:33N 49°29' E 000°11'0 0.0
2015-Apr-10 07:33N 49°29' E 000°11'0 0.0
2015-Apr-10 06:33N 49°29' E 000°11'0 0.0
2015-Apr-10 05:33N 49°29' E 000°11'1 0.5
2015-Apr-10 04:33N 49°29' E 000°10'7 6.5
2015-Apr-10 03:33N 49°30' E 000°00'1 1.4
2015-Apr-10 02:32N 49°29' W 000°02'0 0.0
2015-Apr-10 01:29N 49°29' W 000°02'0 0.0
2015-Apr-10 00:32N 49°29' W 000°02'0 0.0
2015-Apr-09 23:32N 49°29' W 000°02'0 0.2
2015-Apr-09 22:32N 49°29' W 000°02'0 0.0
2015-Apr-09 21:32N 49°29' W 000°02'0 0.1
2015-Apr-09 20:32N 49°29' W 000°02'0 0.0
2015-Apr-09 19:32N 49°29' W 000°02'0 0.0
2015-Apr-09 18:32N 49°29' W 000°02'0 0.0
2015-Apr-09 17:32N 49°29' W 000°02'0 0.0
2015-Apr-09 16:29N 49°29' W 000°02'0 0.0
2015-Apr-09 15:29N 49°29' W 000°02'0 0.0
2015-Apr-09 14:29N 49°29' W 000°02'0 0.1
2015-Apr-09 13:32N 49°29' W 000°01'0 0.1
2015-Apr-09 12:29N 49°29' W 000°01'0 0.0
2015-Apr-09 11:32N 49°29' W 000°02'0 0.0
2015-Apr-09 10:29N 49°29' W 000°02'0 0.1
2015-Apr-09 09:31N 49°29' W 000°02'0 0.1
2015-Apr-09 08:31N 49°29' W 000°02'2 1.8
2015-Apr-09 07:34N 49°30' W 000°04'1413.6
2015-Apr-09 06:33N 49°44' W 000°02'1615.6
2015-Apr-09 05:33N 49°56' E 000°12'3414.4
2015-Apr-09 03:14N 50°25' E 000°38'913.5
2015-Apr-09 02:33N 50°35' E 000°38'1313.5
2015-Apr-09 01:33N 50°44' E 000°53'1312.8
2015-Apr-09 00:33N 50°51' E 001°10'1413.9
2015-Apr-08 23:34N 51°00' E 001°26'1616.2
2015-Apr-08 22:34N 51°12' E 001°44'1616.0
2015-Apr-08 21:34N 51°24' E 002°01'1414.4
2015-Apr-08 20:34N 51°22' E 002°24'1414.1
2015-Apr-08 19:33N 51°22' E 002°46'1414.0
2015-Apr-08 18:34N 51°24' E 003°08'1414.5
2015-Apr-08 17:34N 51°26' E 003°31'1110.9
2015-Apr-08 16:33N 51°21' E 003°47'  

Dump ship's entire track history